Time;durP1;ratioP1;P1;durP2;ratioP2;P2;SDS_P1;SDS_P2;PMS_P1;PMS_P2;Temp;Humidity;BMP_temperature;BMP_pressure;BME280_temperature;BME280_humidity;BME280_pressure;Samples;Min_cycle;Max_cycle;Signal;HPM_P1;HPM_P2
2023/08/21 00:00:00;;;;;;;6.07;3.03;;;;;;;;;;4987116;28;20283;-68
2023/08/21 00:02:27;;;;;;;9.52;2.80;;;;;;;;;;4987591;28;20411;-68
2023/08/21 00:04:53;;;;;;;6.93;3.17;;;;;;;;;;4987789;28;20530;-68
2023/08/21 00:07:18;;;;;;;5.72;2.85;;;;;;;;;;5007561;28;20022;-69
2023/08/21 00:09:43;;;;;;;7.72;3.08;;;;;;;;;;4993398;28;20022;-69
2023/08/21 00:12:08;;;;;;;6.30;3.00;;;;;;;;;;4984647;28;20014;-69
2023/08/21 00:14:34;;;;;;;7.28;3.03;;;;;;;;;;5001981;28;20590;-69
2023/08/21 00:16:59;;;;;;;8.63;3.50;;;;;;;;;;4989339;28;20018;-69
2023/08/21 00:19:24;;;;;;;6.95;3.05;;;;;;;;;;4988933;28;20374;-68
2023/08/21 00:21:49;;;;;;;10.27;3.10;;;;;;;;;;5001015;28;20061;-70
2023/08/21 00:24:14;;;;;;;7.47;3.25;;;;;;;;;;4988380;28;20027;-69
2023/08/21 00:26:40;;;;;;;12.85;3.22;;;;;;;;;;4989283;28;20022;-68
2023/08/21 00:29:05;;;;;;;8.47;2.73;;;;;;;;;;4983956;28;20022;-67
2023/08/21 00:31:30;;;;;;;7.67;2.90;;;;;;;;;;4987841;28;20247;-68
2023/08/21 00:33:55;;;;;;;10.25;3.35;;;;;;;;;;4987546;28;20334;-69
2023/08/21 00:36:20;;;;;;;6.00;2.80;;;;;;;;;;4995158;28;20044;-69
2023/08/21 00:38:46;;;;;;;9.00;3.15;;;;;;;;;;4988410;28;20018;-68
2023/08/21 00:41:11;;;;;;;5.57;2.90;;;;;;;;;;4998536;28;20009;-69
2023/08/21 00:43:37;;;;;;;7.43;3.00;;;;;;;;;;4991582;28;20046;-65
2023/08/21 00:46:02;;;;;;;6.47;2.90;;;;;;;;;;4997252;28;20022;-69
2023/08/21 00:48:28;;;;;;;8.98;3.00;;;;;;;;;;5004876;28;20014;-69
2023/08/21 00:50:53;;;;;;;11.07;3.30;;;;;;;;;;4997906;28;20025;-66
2023/08/21 00:53:18;;;;;;;5.85;3.00;;;;;;;;;;5008207;28;20018;-70
2023/08/21 00:55:44;;;;;;;6.68;3.00;;;;;;;;;;4999437;28;20404;-66
2023/08/21 00:58:11;;;;;;;6.80;3.05;;;;;;;;;;5001630;28;20026;-68
2023/08/21 01:00:37;;;;;;;7.63;3.25;;;;;;;;;;4990572;28;20029;-68
2023/08/21 01:03:02;;;;;;;10.77;3.15;;;;;;;;;;5005405;28;20042;-70
2023/08/21 01:05:27;;;;;;;8.75;3.75;;;;;;;;;;4992940;28;20018;-68
2023/08/21 01:07:59;;;;;;;7.28;3.20;;;;;;;;;;5005246;28;20022;-67
2023/08/21 01:10:47;;;;;;;6.38;2.88;;;;;;;;;;5002214;28;20156;-67
2023/08/21 01:13:12;;;;;;;6.68;3.15;;;;;;;;;;5005658;28;20034;-69
2023/08/21 01:15:38;;;;;;;8.48;3.97;;;;;;;;;;4992047;28;20507;-67
2023/08/21 01:18:04;;;;;;;9.05;3.45;;;;;;;;;;4992458;28;20022;-69
2023/08/21 01:20:29;;;;;;;9.30;3.42;;;;;;;;;;4991929;28;20129;-67
2023/08/21 01:22:54;;;;;;;10.25;3.53;;;;;;;;;;5005370;28;20473;-68
2023/08/21 01:25:20;;;;;;;8.70;3.40;;;;;;;;;;4992009;28;20022;-70
2023/08/21 01:27:46;;;;;;;6.80;3.20;;;;;;;;;;4991697;28;20026;-68
2023/08/21 01:30:11;;;;;;;9.13;3.55;;;;;;;;;;4989819;28;20526;-68
2023/08/21 01:32:49;;;;;;;7.03;3.10;;;;;;;;;;4992073;28;20022;-65
2023/08/21 01:35:14;;;;;;;9.00;3.47;;;;;;;;;;4991428;28;20014;-68
2023/08/21 01:37:40;;;;;;;11.15;3.47;;;;;;;;;;5006043;28;20227;-68
2023/08/21 01:40:05;;;;;;;6.20;3.35;;;;;;;;;;4992461;28;20025;-69
2023/08/21 01:42:30;;;;;;;5.93;3.45;;;;;;;;;;5000124;28;20022;-66
2023/08/21 01:44:56;;;;;;;10.53;3.77;;;;;;;;;;4997987;28;20022;-69
2023/08/21 01:47:21;;;;;;;16.63;3.65;;;;;;;;;;5010684;28;20605;-69
2023/08/21 01:49:46;;;;;;;7.93;3.00;;;;;;;;;;5009268;28;20109;-68
2023/08/21 01:52:11;;;;;;;5.97;3.20;;;;;;;;;;4980781;28;20255;-68
2023/08/21 01:54:37;;;;;;;7.63;3.38;;;;;;;;;;5010299;28;20494;-67
2023/08/21 01:57:02;;;;;;;9.82;3.58;;;;;;;;;;5003220;28;20527;-68
2023/08/21 01:59:28;;;;;;;10.27;3.50;;;;;;;;;;5004106;28;20089;-66
2023/08/21 02:01:53;;;;;;;8.70;2.97;;;;;;;;;;4991583;28;20041;-70
2023/08/21 02:04:19;;;;;;;10.35;3.75;;;;;;;;;;5004256;28;20084;-68
2023/08/21 02:06:44;;;;;;;10.48;4.03;;;;;;;;;;5036769;22;20057;-70
2023/08/21 02:09:10;;;;;;;10.90;3.55;;;;;;;;;;5011453;28;20026;-71
2023/08/21 02:11:35;;;;;;;15.35;4.22;;;;;;;;;;5011382;28;20080;-70
2023/08/21 02:14:00;;;;;;;8.32;4.00;;;;;;;;;;5011819;28;20097;-68
2023/08/21 02:16:26;;;;;;;7.05;3.42;;;;;;;;;;5012146;28;20014;-69
2023/08/21 02:18:51;;;;;;;9.27;4.05;;;;;;;;;;5012421;28;20089;-69
2023/08/21 02:21:16;;;;;;;11.65;4.45;;;;;;;;;;5031442;28;20375;-70
2023/08/21 02:23:41;;;;;;;8.90;3.88;;;;;;;;;;5031003;28;20071;-70
2023/08/21 02:26:07;;;;;;;8.17;3.97;;;;;;;;;;5030572;28;20024;-68
2023/08/21 02:28:32;;;;;;;11.88;3.78;;;;;;;;;;5017178;28;20256;-69
2023/08/21 02:30:57;;;;;;;10.77;3.80;;;;;;;;;;5017733;28;20021;-70
2023/08/21 02:33:22;;;;;;;8.48;4.10;;;;;;;;;;5018853;28;20640;-71
2023/08/21 02:35:47;;;;;;;8.20;3.50;;;;;;;;;;5010933;28;20598;-70
2023/08/21 02:38:13;;;;;;;15.77;3.83;;;;;;;;;;5023831;28;20116;-70
2023/08/21 02:40:38;;;;;;;10.13;3.90;;;;;;;;;;5011494;28;20248;-68
2023/08/21 02:43:03;;;;;;;9.13;3.85;;;;;;;;;;5011680;28;20258;-70
2023/08/21 02:45:28;;;;;;;7.97;3.83;;;;;;;;;;5023937;28;20025;-67
2023/08/21 02:47:54;;;;;;;42.13;4.68;;;;;;;;;;5011637;28;20017;-69
2023/08/21 02:50:19;;;;;;;8.23;4.32;;;;;;;;;;5029103;28;20044;-67
2023/08/21 02:52:44;;;;;;;11.45;4.20;;;;;;;;;;5019603;28;20041;-67
2023/08/21 02:55:09;;;;;;;11.40;3.97;;;;;;;;;;5024268;28;20014;-70
2023/08/21 02:57:35;;;;;;;10.45;4.82;;;;;;;;;;5011668;28;20010;-70
2023/08/21 03:00:00;;;;;;;9.30;4.93;;;;;;;;;;5010564;28;20518;-69
2023/08/21 03:02:25;;;;;;;9.27;3.85;;;;;;;;;;5021662;28;20024;-69
2023/08/21 03:04:51;;;;;;;10.15;4.28;;;;;;;;;;5016384;28;20459;-68
2023/08/21 03:07:16;;;;;;;12.27;4.05;;;;;;;;;;5019382;28;20021;-71
2023/08/21 03:09:42;;;;;;;11.00;3.67;;;;;;;;;;5023800;28;20018;-69
2023/08/21 03:12:07;;;;;;;10.05;3.92;;;;;;;;;;5020680;28;20017;-69
2023/08/21 03:14:33;;;;;;;9.48;4.65;;;;;;;;;;5026654;28;20014;-69
2023/08/21 03:16:58;;;;;;;8.38;3.85;;;;;;;;;;5010523;28;20013;-71
2023/08/21 03:19:23;;;;;;;14.70;4.88;;;;;;;;;;5013356;28;20124;-67
2023/08/21 03:21:49;;;;;;;10.18;4.60;;;;;;;;;;5019109;28;20026;-70
2023/08/21 03:24:14;;;;;;;11.70;4.30;;;;;;;;;;5013751;28;20079;-69
2023/08/21 03:26:39;;;;;;;8.35;4.72;;;;;;;;;;5020688;28;20247;-70
2023/08/21 03:29:04;;;;;;;8.63;4.30;;;;;;;;;;5014110;28;20112;-69
2023/08/21 03:31:30;;;;;;;12.98;5.22;;;;;;;;;;5022354;28;20024;-69
2023/08/21 03:33:55;;;;;;;11.70;5.05;;;;;;;;;;5015174;28;20017;-70
2023/08/21 03:36:21;;;;;;;10.05;4.82;;;;;;;;;;5003898;28;20045;-68
2023/08/21 03:38:46;;;;;;;13.25;6.10;;;;;;;;;;5019538;28;20571;-67
2023/08/21 03:41:14;;;;;;;17.40;5.55;;;;;;;;;;5005081;28;20018;-68
2023/08/21 03:43:39;;;;;;;11.98;5.47;;;;;;;;;;4997796;28;20014;-69
2023/08/21 03:46:05;;;;;;;10.68;4.72;;;;;;;;;;5010630;28;20033;-67
2023/08/21 03:48:30;;;;;;;10.82;5.38;;;;;;;;;;5022077;28;20018;-69
2023/08/21 03:50:55;;;;;;;12.98;4.60;;;;;;;;;;5007918;28;20478;-68
2023/08/21 03:53:20;;;;;;;9.63;4.10;;;;;;;;;;4998978;28;20024;-69
2023/08/21 03:55:46;;;;;;;15.07;4.88;;;;;;;;;;5016751;28;20406;-65
2023/08/21 03:58:12;;;;;;;11.70;4.93;;;;;;;;;;5023651;28;20271;-72
2023/08/21 04:00:37;;;;;;;10.85;4.63;;;;;;;;;;5019664;28;20025;-69
2023/08/21 04:03:02;;;;;;;11.55;4.25;;;;;;;;;;5029670;28;20529;-70
2023/08/21 04:05:27;;;;;;;13.77;4.40;;;;;;;;;;5029327;28;20438;-68
2023/08/21 04:07:53;;;;;;;7.32;4.03;;;;;;;;;;5012692;28;20014;-71
2023/08/21 04:10:18;;;;;;;8.27;4.32;;;;;;;;;;5009344;28;20036;-70
2023/08/21 04:12:43;;;;;;;10.35;3.85;;;;;;;;;;5008878;28;20021;-70
2023/08/21 04:15:09;;;;;;;9.82;4.10;;;;;;;;;;5005903;28;20018;-67
2023/08/21 04:17:34;;;;;;;14.48;4.45;;;;;;;;;;5016422;28;20022;-70
2023/08/21 04:19:59;;;;;;;14.80;4.85;;;;;;;;;;5008148;28;20052;-72
2023/08/21 04:22:25;;;;;;;8.13;3.78;;;;;;;;;;5021367;28;20037;-67
2023/08/21 04:24:50;;;;;;;10.23;4.05;;;;;;;;;;5017190;28;20486;-68
2023/08/21 04:27:15;;;;;;;7.88;3.72;;;;;;;;;;5007265;28;20021;-70
2023/08/21 04:29:40;;;;;;;17.15;4.43;;;;;;;;;;5023448;28;20022;-68
2023/08/21 04:32:06;;;;;;;12.23;4.80;;;;;;;;;;5022962;28;20120;-69
2023/08/21 04:34:34;;;;;;;12.38;3.92;;;;;;;;;;5016787;28;20010;-70
2023/08/21 04:36:59;;;;;;;8.85;3.60;;;;;;;;;;5022759;28;20013;-68
2023/08/21 04:39:25;;;;;;;7.70;4.50;;;;;;;;;;5017811;28;20040;-68
2023/08/21 04:41:50;;;;;;;12.95;4.13;;;;;;;;;;5029320;28;20025;-70
2023/08/21 04:44:16;;;;;;;12.13;4.10;;;;;;;;;;5020424;28;20021;-68
2023/08/21 04:46:41;;;;;;;11.07;4.60;;;;;;;;;;5011149;28;20017;-69
2023/08/21 04:49:06;;;;;;;12.00;4.60;;;;;;;;;;4992418;28;20029;-69
2023/08/21 04:51:31;;;;;;;11.13;5.03;;;;;;;;;;5006981;28;20060;-70
2023/08/21 04:53:56;;;;;;;9.82;5.13;;;;;;;;;;5002910;28;20248;-69
2023/08/21 04:56:22;;;;;;;16.42;5.45;;;;;;;;;;5004657;28;20026;-68
2023/08/21 04:58:47;;;;;;;9.63;4.88;;;;;;;;;;5021956;28;20460;-70
2023/08/21 05:01:12;;;;;;;9.98;4.68;;;;;;;;;;5015949;28;20089;-70
2023/08/21 05:03:37;;;;;;;11.35;6.03;;;;;;;;;;5011215;28;20017;-70
2023/08/21 05:06:03;;;;;;;10.90;6.03;;;;;;;;;;5014261;28;20026;-67
2023/08/21 05:08:28;;;;;;;12.45;5.95;;;;;;;;;;5016633;28;20498;-68
2023/08/21 05:10:54;;;;;;;14.27;5.47;;;;;;;;;;5015061;28;20491;-71
2023/08/21 05:13:19;;;;;;;14.10;5.97;;;;;;;;;;5015655;28;20029;-69
2023/08/21 05:15:50;;;;;;;10.27;5.37;;;;;;;;;;5015004;28;20018;-68
2023/08/21 05:18:15;;;;;;;10.63;6.10;;;;;;;;;;5020449;28;20278;-70
2023/08/21 05:20:41;;;;;;;14.25;5.80;;;;;;;;;;5024110;28;20472;-67
2023/08/21 05:23:06;;;;;;;10.20;5.30;;;;;;;;;;5025182;28;20451;-71
2023/08/21 05:25:31;;;;;;;11.30;5.80;;;;;;;;;;5028451;28;20017;-67
2023/08/21 05:27:57;;;;;;;11.27;5.57;;;;;;;;;;5018527;28;20014;-68
2023/08/21 05:30:22;;;;;;;13.88;6.50;;;;;;;;;;5016808;28;20102;-68
2023/08/21 05:32:47;;;;;;;11.15;5.88;;;;;;;;;;5028358;28;20013;-70
2023/08/21 05:35:12;;;;;;;12.40;6.22;;;;;;;;;;5011611;28;20068;-70
2023/08/21 05:37:38;;;;;;;16.42;6.65;;;;;;;;;;4987672;28;20032;-66
2023/08/21 05:40:03;;;;;;;13.65;6.30;;;;;;;;;;5028797;28;20017;-70
2023/08/21 05:42:28;;;;;;;15.13;7.03;;;;;;;;;;5028589;28;20032;-69
2023/08/21 05:44:53;;;;;;;19.80;6.70;;;;;;;;;;5015210;28;20018;-70
2023/08/21 05:47:19;;;;;;;14.83;7.70;;;;;;;;;;5032146;28;20096;-68
2023/08/21 05:49:44;;;;;;;21.80;6.53;;;;;;;;;;5017779;28;20282;-69
2023/08/21 05:52:09;;;;;;;15.52;6.95;;;;;;;;;;5018768;28;20024;-72
2023/08/21 05:54:34;;;;;;;14.95;7.50;;;;;;;;;;4999835;28;20102;-70
2023/08/21 05:57:00;;;;;;;16.65;7.28;;;;;;;;;;5013446;28;20017;-70
2023/08/21 05:59:34;;;;;;;10.27;6.35;;;;;;;;;;5017749;28;20056;-69
2023/08/21 06:01:59;;;;;;;15.05;6.05;;;;;;;;;;4994258;28;20017;-70
2023/08/21 06:04:25;;;;;;;14.55;7.40;;;;;;;;;;5026156;28;20028;-69
2023/08/21 06:06:50;;;;;;;15.70;7.30;;;;;;;;;;5032391;28;20042;-71
2023/08/21 06:09:17;;;;;;;16.33;6.27;;;;;;;;;;5014348;28;20458;-70
2023/08/21 06:11:42;;;;;;;12.57;6.43;;;;;;;;;;5025223;28;20258;-70
2023/08/21 06:14:07;;;;;;;14.13;6.22;;;;;;;;;;5024671;28;20407;-65
2023/08/21 06:16:32;;;;;;;22.73;5.93;;;;;;;;;;5019190;28;20044;-70
2023/08/21 06:18:58;;;;;;;16.02;6.25;;;;;;;;;;5031070;28;20013;-67
2023/08/21 06:21:23;;;;;;;29.10;6.57;;;;;;;;;;5031961;28;20067;-70
2023/08/21 06:23:48;;;;;;;13.82;5.65;;;;;;;;;;5030724;28;20623;-69
2023/08/21 06:26:13;;;;;;;15.30;5.70;;;;;;;;;;5024769;28;20452;-69
2023/08/21 06:28:39;;;;;;;14.45;5.45;;;;;;;;;;5010187;28;20625;-69
2023/08/21 06:31:07;;;;;;;12.30;4.97;;;;;;;;;;5024011;28;20519;-70
2023/08/21 06:33:32;;;;;;;14.88;5.78;;;;;;;;;;5017035;28;20060;-69
2023/08/21 06:35:57;;;;;;;13.75;5.10;;;;;;;;;;5024888;28;20017;-71
2023/08/21 06:38:22;;;;;;;13.05;5.63;;;;;;;;;;5021934;28;20084;-69
2023/08/21 06:40:48;;;;;;;10.50;5.75;;;;;;;;;;5031749;28;20029;-70
2023/08/21 06:43:13;;;;;;;14.20;5.37;;;;;;;;;;5017710;28;20456;-69
2023/08/21 06:45:38;;;;;;;12.23;5.03;;;;;;;;;;5024185;28;20267;-71
2023/08/21 06:48:03;;;;;;;11.48;5.53;;;;;;;;;;5011637;28;20025;-70
2023/08/21 06:50:29;;;;;;;10.75;4.90;;;;;;;;;;5024573;28;20029;-68
2023/08/21 06:52:54;;;;;;;20.70;5.65;;;;;;;;;;5024042;28;20371;-69
2023/08/21 06:55:19;;;;;;;12.80;5.07;;;;;;;;;;5030789;28;20587;-69
2023/08/21 06:57:44;;;;;;;17.63;5.50;;;;;;;;;;5030317;28;20285;-70
2023/08/21 07:00:10;;;;;;;15.50;5.88;;;;;;;;;;5017593;28;20013;-67
2023/08/21 07:02:35;;;;;;;12.80;5.20;;;;;;;;;;5018433;28;20507;-68
2023/08/21 07:05:00;;;;;;;12.25;5.47;;;;;;;;;;5015420;28;20033;-70
2023/08/21 07:07:26;;;;;;;13.70;5.10;;;;;;;;;;5011903;28;20367;-67
2023/08/21 07:09:51;;;;;;;10.52;5.75;;;;;;;;;;5030374;28;20085;-70
2023/08/21 07:12:16;;;;;;;15.90;5.15;;;;;;;;;;5013375;28;20018;-70
2023/08/21 07:14:42;;;;;;;14.82;5.55;;;;;;;;;;5012221;28;20096;-70
2023/08/21 07:17:08;;;;;;;16.30;5.22;;;;;;;;;;5010624;28;20010;-69
2023/08/21 07:19:33;;;;;;;12.73;4.88;;;;;;;;;;4997332;28;20084;-69
2023/08/21 07:21:58;;;;;;;16.30;5.93;;;;;;;;;;5020001;28;20014;-66
2023/08/21 07:24:24;;;;;;;12.77;5.57;;;;;;;;;;4999172;28;20017;-70
2023/08/21 07:26:49;;;;;;;14.07;6.10;;;;;;;;;;5001618;28;20444;-67
2023/08/21 07:29:14;;;;;;;18.63;5.77;;;;;;;;;;5016568;28;20974;-67
2023/08/21 07:31:40;;;;;;;13.07;4.88;;;;;;;;;;5023163;28;20249;-70
2023/08/21 07:34:05;;;;;;;13.38;5.57;;;;;;;;;;5029680;28;20466;-71
2023/08/21 07:36:31;;;;;;;9.68;5.38;;;;;;;;;;5026621;28;20025;-71
2023/08/21 07:38:56;;;;;;;12.50;4.80;;;;;;;;;;5015630;28;20161;-69
2023/08/21 07:41:21;;;;;;;11.75;5.18;;;;;;;;;;5010565;28;20089;-68
2023/08/21 07:43:47;;;;;;;14.48;5.45;;;;;;;;;;5023315;28;20021;-67
2023/08/21 07:46:15;;;;;;;12.90;5.50;;;;;;;;;;5021858;28;20075;-69
2023/08/21 07:48:40;;;;;;;;;;;;;;;;;;5030328;28;20052;-71
2023/08/21 07:51:05;;;;;;;13.52;5.78;;;;;;;;;;5029988;28;19955;-69
2023/08/21 07:53:31;;;;;;;14.33;5.97;;;;;;;;;;5029075;28;20052;-71
2023/08/21 07:55:56;;;;;;;17.42;7.07;;;;;;;;;;5018996;28;20240;-70
2023/08/21 07:58:21;;;;;;;23.33;6.75;;;;;;;;;;4992008;28;20387;-70
2023/08/21 08:00:48;;;;;;;20.92;6.38;;;;;;;;;;5021578;28;20018;-67
2023/08/21 08:03:14;;;;;;;13.43;5.43;;;;;;;;;;5011533;28;20025;-66
2023/08/21 08:05:39;;;;;;;13.10;6.00;;;;;;;;;;5032564;22;20030;-66
2023/08/21 08:08:05;;;;;;;15.30;6.30;;;;;;;;;;5009521;28;20029;-66
2023/08/21 08:10:30;;;;;;;15.05;6.18;;;;;;;;;;5007588;28;20096;-66
2023/08/21 08:12:55;;;;;;;20.88;5.80;;;;;;;;;;5012504;28;20017;-65
2023/08/21 08:15:21;;;;;;;12.65;5.70;;;;;;;;;;5027789;28;20043;-67
2023/08/21 08:17:46;;;;;;;14.32;6.20;;;;;;;;;;5028076;28;20435;-67
2023/08/21 08:20:12;;;;;;;11.77;6.10;;;;;;;;;;5028432;28;20021;-64
2023/08/21 08:22:37;;;;;;;16.50;6.25;;;;;;;;;;5005632;28;20109;-67
2023/08/21 08:25:05;;;;;;;22.08;6.90;;;;;;;;;;5008258;28;20106;-63
2023/08/21 08:27:31;;;;;;;14.43;6.22;;;;;;;;;;5006299;28;20052;-67
2023/08/21 08:29:56;;;;;;;15.57;6.05;;;;;;;;;;5007708;28;20056;-65
2023/08/21 08:32:21;;;;;;;14.18;5.75;;;;;;;;;;5024681;28;20041;-67
2023/08/21 08:34:47;;;;;;;14.98;6.38;;;;;;;;;;5027853;28;20089;-67
2023/08/21 08:37:12;;;;;;;10.82;5.28;;;;;;;;;;5020731;28;20016;-66
2023/08/21 08:39:37;;;;;;;17.38;5.65;;;;;;;;;;5021182;28;20053;-68
2023/08/21 08:42:03;;;;;;;13.07;4.53;;;;;;;;;;5023595;28;20017;-64
2023/08/21 08:44:29;;;;;;;8.77;5.38;;;;;;;;;;5018536;28;20278;-67
2023/08/21 08:46:55;;;;;;;9.88;5.13;;;;;;;;;;5023757;28;20014;-65
2023/08/21 08:49:21;;;;;;;11.32;5.00;;;;;;;;;;5007740;28;20030;-67
2023/08/21 08:51:48;;;;;;;11.85;4.72;;;;;;;;;;5024105;28;20022;-67
2023/08/21 08:54:14;;;;;;;12.52;4.32;;;;;;;;;;5027051;28;20450;-69
2023/08/21 08:56:39;;;;;;;8.57;4.40;;;;;;;;;;5023470;28;20089;-68
2023/08/21 08:59:05;;;;;;;11.25;4.82;;;;;;;;;;4990300;28;20104;-65
2023/08/21 09:01:30;;;;;;;10.52;4.28;;;;;;;;;;5007615;28;20124;-66
2023/08/21 09:03:56;;;;;;;15.52;4.00;;;;;;;;;;5016926;28;20109;-68
2023/08/21 09:06:21;;;;;;;11.27;4.43;;;;;;;;;;5022907;28;20017;-64
2023/08/21 09:08:56;;;;;;;8.87;3.83;;;;;;;;;;5012475;28;20391;-69
2023/08/21 09:11:21;;;;;;;10.02;3.70;;;;;;;;;;5025278;28;20581;-68
2023/08/21 09:13:49;;;;;;;11.52;4.05;;;;;;;;;;5029232;28;20018;-69
2023/08/21 09:16:16;;;;;;;10.10;3.58;;;;;;;;;;5022270;28;20106;-66
2023/08/21 09:18:53;;;;;;;10.43;3.67;;;;;;;;;;5019154;28;20111;-67
2023/08/21 09:21:19;;;;;;;9.87;3.67;;;;;;;;;;5009874;28;20017;-65
2023/08/21 09:23:45;;;;;;;10.20;3.53;;;;;;;;;;5017406;28;20028;-66
2023/08/21 09:26:11;;;;;;;6.90;3.25;;;;;;;;;;5016655;28;20021;-67
2023/08/21 09:28:37;;;;;;;8.10;3.05;;;;;;;;;;5004137;28;20010;-64
2023/08/21 09:31:03;;;;;;;8.88;4.03;;;;;;;;;;5005691;28;20153;-66
2023/08/21 09:33:28;;;;;;;10.70;4.15;;;;;;;;;;5030197;28;20359;-67
2023/08/21 09:35:54;;;;;;;8.07;3.35;;;;;;;;;;5011602;28;20061;-64
2023/08/21 09:38:19;;;;;;;13.23;3.63;;;;;;;;;;5016551;28;20098;-65
2023/08/21 09:40:52;;;;;;;17.80;3.80;;;;;;;;;;5023679;28;20018;-63
2023/08/21 09:43:17;;;;;;;7.90;3.83;;;;;;;;;;5011758;28;20022;-67
2023/08/21 09:45:45;;;;;;;7.50;3.58;;;;;;;;;;5030446;28;20087;-66
2023/08/21 09:48:11;;;;;;;9.55;3.97;;;;;;;;;;5017241;28;20021;-66
2023/08/21 09:50:38;;;;;;;7.40;3.13;;;;;;;;;;5030881;28;20023;-68
2023/08/21 09:53:04;;;;;;;8.27;3.20;;;;;;;;;;5029692;28;20443;-67
2023/08/21 09:55:31;;;;;;;14.13;3.60;;;;;;;;;;5030185;28;20021;-67
2023/08/21 09:58:00;;;;;;;9.32;3.17;;;;;;;;;;5029729;28;20014;-66
2023/08/21 10:00:32;;;;;;;8.70;3.47;;;;;;;;;;5030439;28;20425;-67
2023/08/21 10:03:02;;;;;;;10.65;3.10;;;;;;;;;;5030258;28;20065;-68
2023/08/21 10:05:28;;;;;;;7.28;3.45;;;;;;;;;;5020317;28;20045;-64
2023/08/21 10:07:55;;;;;;;12.27;4.35;;;;;;;;;;5022857;28;20030;-67
2023/08/21 10:10:20;;;;;;;11.75;3.45;;;;;;;;;;5020428;28;20519;-67
2023/08/21 10:12:46;;;;;;;13.50;3.35;;;;;;;;;;5010785;28;20037;-66
2023/08/21 10:15:11;;;;;;;8.98;3.33;;;;;;;;;;5019513;28;20375;-66
2023/08/21 10:17:37;;;;;;;8.40;3.10;;;;;;;;;;5029614;28;20059;-65
2023/08/21 10:20:03;;;;;;;6.43;3.25;;;;;;;;;;5029581;28;20075;-68
2023/08/21 10:22:37;;;;;;;10.15;3.22;;;;;;;;;;5028845;28;20074;-67
2023/08/21 10:25:02;;;;;;;8.65;3.42;;;;;;;;;;5029734;28;20014;-67
2023/08/21 10:27:30;;;;;;;7.32;3.03;;;;;;;;;;5024258;28;20121;-64
2023/08/21 10:29:56;;;;;;;7.60;3.05;;;;;;;;;;5015662;28;20364;-68
2023/08/21 10:32:22;;;;;;;7.22;3.35;;;;;;;;;;5009135;28;20024;-66
2023/08/21 10:34:51;;;;;;;8.38;2.90;;;;;;;;;;5010177;28;20006;-65
2023/08/21 10:37:16;;;;;;;6.90;2.60;;;;;;;;;;5020149;28;20025;-68
2023/08/21 10:39:54;;;;;;;10.57;2.93;;;;;;;;;;5017916;28;20155;-68
2023/08/21 10:42:19;;;;;;;8.43;2.72;;;;;;;;;;5007942;28;20247;-65
2023/08/21 10:45:00;;;;;;;8.65;2.63;;;;;;;;;;5020295;28;20118;-65
2023/08/21 10:47:28;;;;;;;4.88;2.33;;;;;;;;;;5027099;28;20029;-70
2023/08/21 10:49:54;;;;;;;7.47;2.60;;;;;;;;;;5007450;28;20138;-64
2023/08/21 10:52:22;;;;;;;6.35;2.70;;;;;;;;;;5013236;28;20096;-68
2023/08/21 10:54:48;;;;;;;8.65;2.90;;;;;;;;;;5014738;28;20018;-65
2023/08/21 10:57:13;;;;;;;5.18;2.50;;;;;;;;;;5021377;28;20046;-68
2023/08/21 10:59:48;;;;;;;5.13;2.38;;;;;;;;;;5022080;28;20045;-65
2023/08/21 11:02:14;;;;;;;7.28;2.33;;;;;;;;;;5008904;28;20080;-67
2023/08/21 11:04:40;;;;;;;5.25;2.55;;;;;;;;;;5008893;28;20129;-67
2023/08/21 11:07:05;;;;;;;8.68;2.30;;;;;;;;;;5016988;28;20029;-64
2023/08/21 11:09:30;;;;;;;7.95;2.80;;;;;;;;;;5028380;28;20018;-66
2023/08/21 11:11:56;;;;;;;6.65;2.63;;;;;;;;;;5028830;28;20091;-65
2023/08/21 11:14:25;;;;;;;5.03;2.08;;;;;;;;;;5015255;28;20110;-66
2023/08/21 11:16:51;;;;;;;4.35;1.90;;;;;;;;;;5029464;28;20060;-67
2023/08/21 11:19:16;;;;;;;9.70;2.50;;;;;;;;;;5013555;28;20071;-67
2023/08/21 11:21:43;;;;;;;6.87;2.40;;;;;;;;;;5009276;28;20463;-66
2023/08/21 11:24:08;;;;;;;7.60;2.10;;;;;;;;;;5011858;28;20266;-65
2023/08/21 11:26:33;;;;;;;7.20;2.10;;;;;;;;;;5017767;28;20010;-64
2023/08/21 11:29:02;;;;;;;5.40;2.10;;;;;;;;;;5013219;28;20247;-67
2023/08/21 11:31:27;;;;;;;7.00;2.40;;;;;;;;;;5002034;28;20037;-67
2023/08/21 11:33:52;;;;;;;6.88;2.50;;;;;;;;;;5024480;28;20018;-63
2023/08/21 11:36:18;;;;;;;6.78;2.30;;;;;;;;;;5004579;28;20113;-65
2023/08/21 11:38:57;;;;;;;10.45;3.17;;;;;;;;;;5017919;28;20025;-67
2023/08/21 11:41:22;;;;;;;8.60;2.08;;;;;;;;;;5029228;28;20463;-67
2023/08/21 11:43:47;;;;;;;7.43;2.70;;;;;;;;;;5014894;28;20079;-68
2023/08/21 11:46:13;;;;;;;6.90;2.80;;;;;;;;;;5028978;28;20312;-66
2023/08/21 11:48:39;;;;;;;7.53;3.58;;;;;;;;;;5028818;28;20308;-67
2023/08/21 11:51:04;;;;;;;6.50;3.22;;;;;;;;;;5028480;28;20021;-63
2023/08/21 11:53:35;;;;;;;6.55;2.53;;;;;;;;;;5027808;28;20117;-66
2023/08/21 11:56:01;;;;;;;5.15;2.40;;;;;;;;;;5015858;28;20014;-66
2023/08/21 11:58:28;;;;;;;5.60;2.67;;;;;;;;;;5026836;28;20417;-67
2023/08/21 12:00:53;;;;;;;5.63;2.42;;;;;;;;;;5016488;28;20022;-67
2023/08/21 12:03:19;;;;;;;7.35;2.35;;;;;;;;;;5027469;28;20105;-68
2023/08/21 12:05:44;;;;;;;6.30;2.55;;;;;;;;;;5016106;28;20041;-63
2023/08/21 12:08:09;;;;;;;10.75;2.92;;;;;;;;;;5009356;28;20040;-67
2023/08/21 12:10:35;;;;;;;10.43;3.33;;;;;;;;;;5028701;28;20025;-64
2023/08/21 12:13:00;;;;;;;8.90;3.30;;;;;;;;;;5015053;28;20028;-66
2023/08/21 12:15:25;;;;;;;5.47;2.90;;;;;;;;;;5028597;28;20459;-67
2023/08/21 12:17:50;;;;;;;12.82;3.50;;;;;;;;;;5023449;28;20464;-68
2023/08/21 12:20:16;;;;;;;7.65;2.67;;;;;;;;;;5009071;28;20009;-66
2023/08/21 12:22:44;;;;;;;6.75;2.47;;;;;;;;;;5012007;28;20670;-66
2023/08/21 12:25:10;;;;;;;8.55;2.67;;;;;;;;;;5016764;28;20082;-68
2023/08/21 12:27:35;;;;;;;9.10;3.25;;;;;;;;;;5020527;28;20029;-65
2023/08/21 12:30:00;;;;;;;8.43;3.15;;;;;;;;;;5015146;28;20021;-66
2023/08/21 12:32:26;;;;;;;8.00;3.00;;;;;;;;;;5026747;28;20100;-68
2023/08/21 12:34:52;;;;;;;9.88;3.30;;;;;;;;;;5027988;28;20254;-68
2023/08/21 12:37:17;;;;;;;6.22;2.72;;;;;;;;;;5019701;28;20014;-66
2023/08/21 12:39:42;;;;;;;10.30;3.42;;;;;;;;;;4982116;28;20387;-68
2023/08/21 12:42:07;;;;;;;8.50;2.97;;;;;;;;;;5009312;28;20211;-67
2023/08/21 12:44:33;;;;;;;8.95;3.47;;;;;;;;;;5019296;28;20314;-64
2023/08/21 12:46:58;;;;;;;10.85;3.55;;;;;;;;;;4993082;28;20088;-67
2023/08/21 12:49:23;;;;;;;7.20;3.07;;;;;;;;;;5019181;28;20018;-63
2023/08/21 12:51:48;;;;;;;9.13;3.20;;;;;;;;;;5028298;28;20255;-67
2023/08/21 12:54:14;;;;;;;7.18;3.25;;;;;;;;;;5027615;28;20258;-65
2023/08/21 12:56:39;;;;;;;10.77;3.03;;;;;;;;;;5030011;28;20100;-66
2023/08/21 12:59:04;;;;;;;7.43;2.70;;;;;;;;;;5021094;28;20331;-66
2023/08/21 13:01:31;;;;;;;7.47;2.80;;;;;;;;;;5025412;28;20014;-67
2023/08/21 13:03:56;;;;;;;8.10;2.92;;;;;;;;;;5021230;28;20039;-67
2023/08/21 13:06:22;;;;;;;10.40;2.72;;;;;;;;;;5027676;28;20033;-65
2023/08/21 13:08:47;;;;;;;8.50;3.13;;;;;;;;;;5020271;28;20069;-68
2023/08/21 13:11:12;;;;;;;11.18;2.85;;;;;;;;;;5020584;28;20029;-66
2023/08/21 13:13:37;;;;;;;7.72;3.08;;;;;;;;;;5032374;28;20013;-68
2023/08/21 13:16:03;;;;;;;7.70;2.83;;;;;;;;;;5032177;28;20045;-67
2023/08/21 13:18:28;;;;;;;15.10;3.15;;;;;;;;;;5031772;28;20013;-67
2023/08/21 13:20:53;;;;;;;9.88;2.80;;;;;;;;;;5031561;28;20087;-68
2023/08/21 13:23:19;;;;;;;6.50;2.60;;;;;;;;;;5026648;28;20052;-66
2023/08/21 13:25:44;;;;;;;5.72;2.47;;;;;;;;;;5014813;28;20036;-65
2023/08/21 13:28:10;;;;;;;9.32;3.00;;;;;;;;;;5011232;28;20451;-67
2023/08/21 13:30:36;;;;;;;6.38;2.90;;;;;;;;;;5009874;28;20361;-67
2023/08/21 13:33:01;;;;;;;6.53;2.30;;;;;;;;;;5020842;28;20028;-65
2023/08/21 13:35:26;;;;;;;8.05;2.30;;;;;;;;;;5028481;28;20017;-68
2023/08/21 13:37:52;;;;;;;7.45;2.53;;;;;;;;;;5019820;28;20062;-63
2023/08/21 13:40:17;;;;;;;6.10;2.53;;;;;;;;;;5030882;28;20374;-67
2023/08/21 13:42:43;;;;;;;8.30;3.10;;;;;;;;;;5031602;28;20013;-66
2023/08/21 13:45:12;;;;;;;6.63;2.60;;;;;;;;;;5017465;28;20017;-67
2023/08/21 13:47:38;;;;;;;5.55;2.60;;;;;;;;;;5030897;28;20013;-67
2023/08/21 13:50:05;;;;;;;6.03;2.45;;;;;;;;;;5030887;28;20104;-65
2023/08/21 13:52:30;;;;;;;10.75;3.00;;;;;;;;;;5020964;28;20352;-68
2023/08/21 13:54:55;;;;;;;6.93;2.35;;;;;;;;;;5010714;28;20021;-67
2023/08/21 13:57:21;;;;;;;5.57;2.47;;;;;;;;;;5010851;28;20085;-64
2023/08/21 13:59:46;;;;;;;7.00;2.92;;;;;;;;;;5013223;28;20009;-66
2023/08/21 14:02:11;;;;;;;7.47;2.70;;;;;;;;;;5020838;28;20506;-65
2023/08/21 14:04:37;;;;;;;7.93;2.40;;;;;;;;;;4996379;28;20254;-66
2023/08/21 14:07:02;;;;;;;8.50;2.50;;;;;;;;;;5024614;23;20440;-71
2023/08/21 14:09:27;;;;;;;6.45;2.45;;;;;;;;;;5010247;28;20029;-71
2023/08/21 14:11:52;;;;;;;8.73;2.80;;;;;;;;;;5005008;28;20371;-67
2023/08/21 14:14:18;;;;;;;6.63;2.30;;;;;;;;;;5010697;28;20014;-69
2023/08/21 14:16:43;;;;;;;6.47;2.67;;;;;;;;;;5012422;28;20247;-69
2023/08/21 14:19:08;;;;;;;6.72;2.13;;;;;;;;;;5011639;28;20713;-73
2023/08/21 14:21:33;;;;;;;5.80;2.45;;;;;;;;;;5011585;28;20097;-66
2023/08/21 14:23:59;;;;;;;10.05;2.60;;;;;;;;;;5010745;28;20490;-70
2023/08/21 14:26:24;;;;;;;6.57;2.33;;;;;;;;;;5011876;28;20061;-67